sensor_id;sensor_type;location;lat;lon;timestamp;pressure;altitude;pressure_sealevel;temperature;humidity
6198;BME280;3132;42.622;23.328;2023-01-25T00:02:02;93817.09;;;1.32;100.00
6198;BME280;3132;42.622;23.328;2023-01-25T00:04:27;93821.50;;;1.38;100.00
6198;BME280;3132;42.622;23.328;2023-01-25T00:06:53;93811.38;;;1.30;100.00
6198;BME280;3132;42.622;23.328;2023-01-25T00:09:19;93817.75;;;1.47;100.00
6198;BME280;3132;42.622;23.328;2023-01-25T00:11:45;93813.59;;;1.53;100.00
6198;BME280;3132;42.622;23.328;2023-01-25T00:14:11;93815.38;;;1.46;100.00
6198;BME280;3132;42.622;23.328;2023-01-25T00:16:37;93812.44;;;1.55;100.00
6198;BME280;3132;42.622;23.328;2023-01-25T00:19:04;93806.22;;;1.30;100.00
6198;BME280;3132;42.622;23.328;2023-01-25T00:21:29;93811.41;;;1.37;100.00
6198;BME280;3132;42.622;23.328;2023-01-25T00:23:55;93798.28;;;1.25;100.00
6198;BME280;3132;42.622;23.328;2023-01-25T00:26:20;93787.59;;;1.22;100.00
6198;BME280;3132;42.622;23.328;2023-01-25T00:28:49;93809.00;;;1.35;100.00
6198;BME280;3132;42.622;23.328;2023-01-25T00:31:25;93812.03;;;1.52;100.00
6198;BME280;3132;42.622;23.328;2023-01-25T00:33:56;93810.22;;;1.46;100.00
6198;BME280;3132;42.622;23.328;2023-01-25T00:36:38;93814.78;;;1.44;100.00
6198;BME280;3132;42.622;23.328;2023-01-25T00:39:05;93810.38;;;1.31;100.00
6198;BME280;3132;42.622;23.328;2023-01-25T00:41:31;93814.50;;;1.19;100.00
6198;BME280;3132;42.622;23.328;2023-01-25T00:43:57;93817.28;;;1.24;100.00
6198;BME280;3132;42.622;23.328;2023-01-25T00:46:22;93796.50;;;1.19;100.00
6198;BME280;3132;42.622;23.328;2023-01-25T00:48:48;93802.25;;;1.28;100.00
6198;BME280;3132;42.622;23.328;2023-01-25T00:51:13;93799.13;;;1.39;100.00
6198;BME280;3132;42.622;23.328;2023-01-25T00:53:40;93797.19;;;1.47;100.00
6198;BME280;3132;42.622;23.328;2023-01-25T00:56:06;93821.50;;;1.51;100.00
6198;BME280;3132;42.622;23.328;2023-01-25T00:58:31;93796.31;;;1.21;100.00
6198;BME280;3132;42.622;23.328;2023-01-25T01:00:57;93805.44;;;1.36;100.00
6198;BME280;3132;42.622;23.328;2023-01-25T01:03:22;93801.63;;;1.19;100.00
6198;BME280;3132;42.622;23.328;2023-01-25T01:06:07;93808.19;;;1.28;100.00
6198;BME280;3132;42.622;23.328;2023-01-25T01:08:34;93802.25;;;1.21;100.00
6198;BME280;3132;42.622;23.328;2023-01-25T01:11:02;93809.56;;;1.24;100.00
6198;BME280;3132;42.622;23.328;2023-01-25T01:13:28;93816.31;;;1.25;100.00
6198;BME280;3132;42.622;23.328;2023-01-25T01:15:55;93790.13;;;1.09;100.00
6198;BME280;3132;42.622;23.328;2023-01-25T01:18:20;93816.69;;;1.22;100.00
6198;BME280;3132;42.622;23.328;2023-01-25T01:20:50;93795.81;;;0.98;100.00
6198;BME280;3132;42.622;23.328;2023-01-25T01:23:15;93804.16;;;1.06;100.00
6198;BME280;3132;42.622;23.328;2023-01-25T01:25:41;93812.16;;;1.24;100.00
6198;BME280;3132;42.622;23.328;2023-01-25T01:28:06;93808.38;;;1.27;100.00
6198;BME280;3132;42.622;23.328;2023-01-25T01:30:31;93779.22;;;1.00;100.00
6198;BME280;3132;42.622;23.328;2023-01-25T01:32:57;93805.22;;;1.25;100.00
6198;BME280;3132;42.622;23.328;2023-01-25T01:35:22;93774.69;;;1.02;100.00
6198;BME280;3132;42.622;23.328;2023-01-25T01:37:47;93802.81;;;1.23;100.00
6198;BME280;3132;42.622;23.328;2023-01-25T01:40:14;93805.47;;;1.43;100.00
6198;BME280;3132;42.622;23.328;2023-01-25T01:43:04;93782.03;;;1.18;100.00
6198;BME280;3132;42.622;23.328;2023-01-25T01:48:16;93793.16;;;1.25;100.00
6198;BME280;3132;42.622;23.328;2023-01-25T01:50:44;93785.59;;;1.17;100.00
6198;BME280;3132;42.622;23.328;2023-01-25T01:53:09;93743.19;;;0.94;100.00
6198;BME280;3132;42.622;23.328;2023-01-25T01:55:35;93787.78;;;1.20;100.00
6198;BME280;3132;42.622;23.328;2023-01-25T01:58:02;93789.56;;;1.20;100.00
6198;BME280;3132;42.622;23.328;2023-01-25T02:00:31;93777.72;;;1.25;100.00
6198;BME280;3132;42.622;23.328;2023-01-25T02:02:58;93790.78;;;1.30;100.00
6198;BME280;3132;42.622;23.328;2023-01-25T02:05:41;93786.78;;;1.15;100.00
6198;BME280;3132;42.622;23.328;2023-01-25T02:08:11;93792.31;;;1.18;100.00
6198;BME280;3132;42.622;23.328;2023-01-25T02:10:38;93789.16;;;1.16;100.00
6198;BME280;3132;42.622;23.328;2023-01-25T02:13:04;93772.13;;;1.09;100.00
6198;BME280;3132;42.622;23.328;2023-01-25T02:15:37;93793.56;;;1.35;100.00
6198;BME280;3132;42.622;23.328;2023-01-25T02:18:04;93750.81;;;1.21;100.00
6198;BME280;3132;42.622;23.328;2023-01-25T02:20:41;93789.81;;;1.31;100.00
6198;BME280;3132;42.622;23.328;2023-01-25T02:26:00;93775.28;;;1.11;100.00
6198;BME280;3132;42.622;23.328;2023-01-25T02:30:55;93785.72;;;1.03;100.00
6198;BME280;3132;42.622;23.328;2023-01-25T02:33:22;93792.28;;;1.05;100.00
6198;BME280;3132;42.622;23.328;2023-01-25T02:35:53;93789.94;;;1.17;100.00
6198;BME280;3132;42.622;23.328;2023-01-25T02:38:20;93787.72;;;1.01;100.00
6198;BME280;3132;42.622;23.328;2023-01-25T02:40:59;93788.34;;;1.09;100.00
6198;BME280;3132;42.622;23.328;2023-01-25T02:43:28;93789.56;;;1.13;100.00
6198;BME280;3132;42.622;23.328;2023-01-25T02:46:05;93784.19;;;1.08;100.00
6198;BME280;3132;42.622;23.328;2023-01-25T02:48:35;93755.03;;;0.88;100.00
6198;BME280;3132;42.622;23.328;2023-01-25T02:51:01;93777.09;;;1.10;100.00
6198;BME280;3132;42.622;23.328;2023-01-25T02:53:26;93758.16;;;0.77;100.00
6198;BME280;3132;42.622;23.328;2023-01-25T02:55:52;93776.41;;;0.95;100.00
6198;BME280;3132;42.622;23.328;2023-01-25T02:58:17;93784.75;;;0.97;100.00
6198;BME280;3132;42.622;23.328;2023-01-25T03:00:42;93791.31;;;1.13;100.00
6198;BME280;3132;42.622;23.328;2023-01-25T03:03:08;93790.94;;;1.16;100.00
6198;BME280;3132;42.622;23.328;2023-01-25T03:05:33;93796.28;;;1.14;100.00
6198;BME280;3132;42.622;23.328;2023-01-25T03:07:59;93775.25;;;1.04;100.00
6198;BME280;3132;42.622;23.328;2023-01-25T03:10:24;93787.56;;;1.15;100.00
6198;BME280;3132;42.622;23.328;2023-01-25T03:12:49;93789.94;;;1.10;100.00
6198;BME280;3132;42.622;23.328;2023-01-25T03:15:15;93785.59;;;1.17;100.00
6198;BME280;3132;42.622;23.328;2023-01-25T03:17:40;93786.44;;;1.24;100.00
6198;BME280;3132;42.622;23.328;2023-01-25T03:20:06;93760.25;;;1.08;100.00
6198;BME280;3132;42.622;23.328;2023-01-25T03:22:31;93780.50;;;1.30;100.00
6198;BME280;3132;42.622;23.328;2023-01-25T03:24:57;93762.47;;;1.17;100.00
6198;BME280;3132;42.622;23.328;2023-01-25T03:27:22;93784.81;;;1.23;100.00
6198;BME280;3132;42.622;23.328;2023-01-25T03:29:48;93786.97;;;1.20;100.00
6198;BME280;3132;42.622;23.328;2023-01-25T03:32:13;93786.59;;;1.16;100.00
6198;BME280;3132;42.622;23.328;2023-01-25T03:34:38;93769.19;;;1.12;100.00
6198;BME280;3132;42.622;23.328;2023-01-25T03:37:07;93782.25;;;1.23;100.00
6198;BME280;3132;42.622;23.328;2023-01-25T03:39:32;93753.16;;;1.10;100.00
6198;BME280;3132;42.622;23.328;2023-01-25T03:41:58;93765.03;;;1.17;100.00
6198;BME280;3132;42.622;23.328;2023-01-25T03:44:23;93769.41;;;1.23;100.00
6198;BME280;3132;42.622;23.328;2023-01-25T03:46:48;93752.75;;;1.13;100.00
6198;BME280;3132;42.622;23.328;2023-01-25T03:49:14;93769.78;;;1.20;100.00
6198;BME280;3132;42.622;23.328;2023-01-25T03:51:39;93774.16;;;1.26;100.00
6198;BME280;3132;42.622;23.328;2023-01-25T03:54:05;93770.16;;;1.17;100.00
6198;BME280;3132;42.622;23.328;2023-01-25T03:56:32;93758.69;;;1.13;100.00
6198;BME280;3132;42.622;23.328;2023-01-25T03:58:57;93770.22;;;1.30;100.00
6198;BME280;3132;42.622;23.328;2023-01-25T04:01:23;93767.00;;;1.22;100.00
6198;BME280;3132;42.622;23.328;2023-01-25T04:03:48;93767.38;;;1.12;100.00
6198;BME280;3132;42.622;23.328;2023-01-25T04:06:13;93770.97;;;1.18;100.00
6198;BME280;3132;42.622;23.328;2023-01-25T04:08:39;93758.31;;;1.16;100.00
6198;BME280;3132;42.622;23.328;2023-01-25T04:11:06;93765.03;;;1.17;100.00
6198;BME280;3132;42.622;23.328;2023-01-25T04:13:33;93767.78;;;1.16;100.00
6198;BME280;3132;42.622;23.328;2023-01-25T04:16:05;93769.75;;;1.14;100.00
6198;BME280;3132;42.622;23.328;2023-01-25T04:18:31;93764.81;;;1.12;100.00
6198;BME280;3132;42.622;23.328;2023-01-25T04:20:57;93762.47;;;1.17;100.00
6198;BME280;3132;42.622;23.328;2023-01-25T04:23:24;93767.22;;;1.20;100.00
6198;BME280;3132;42.622;23.328;2023-01-25T04:25:57;93765.06;;;1.30;100.00
6198;BME280;3132;42.622;23.328;2023-01-25T04:28:23;93761.09;;;1.21;100.00
6198;BME280;3132;42.622;23.328;2023-01-25T04:30:49;93761.84;;;1.15;100.00
6198;BME280;3132;42.622;23.328;2023-01-25T04:33:15;93767.44;;;1.25;100.00
6198;BME280;3132;42.622;23.328;2023-01-25T04:35:40;93769.41;;;1.30;100.00
6198;BME280;3132;42.622;23.328;2023-01-25T04:38:06;93756.72;;;1.15;100.00
6198;BME280;3132;42.622;23.328;2023-01-25T04:40:32;93776.88;;;1.18;100.00
6198;BME280;3132;42.622;23.328;2023-01-25T04:42:57;93763.41;;;1.03;100.00
6198;BME280;3132;42.622;23.328;2023-01-25T04:45:23;93780.81;;;1.08;100.00
6198;BME280;3132;42.622;23.328;2023-01-25T04:47:58;93765.81;;;1.11;100.00
6198;BME280;3132;42.622;23.328;2023-01-25T04:50:23;93771.75;;;1.18;100.00
6198;BME280;3132;42.622;23.328;2023-01-25T04:52:49;93774.72;;;1.22;100.00
6198;BME280;3132;42.622;23.328;2023-01-25T04:55:14;93784.03;;;1.16;100.00
6198;BME280;3132;42.622;23.328;2023-01-25T04:57:40;93766.25;;;1.21;100.00
6198;BME280;3132;42.622;23.328;2023-01-25T05:00:05;93759.47;;;1.07;100.00
6198;BME280;3132;42.622;23.328;2023-01-25T05:02:31;93788.94;;;1.11;100.00
6198;BME280;3132;42.622;23.328;2023-01-25T05:04:56;93785.00;;;1.15;100.00
6198;BME280;3132;42.622;23.328;2023-01-25T05:07:22;93770.97;;;1.18;100.00
6198;BME280;3132;42.622;23.328;2023-01-25T05:09:47;93760.81;;;1.03;100.00
6198;BME280;3132;42.622;23.328;2023-01-25T05:12:12;93770.78;;;1.19;100.00
6198;BME280;3132;42.622;23.328;2023-01-25T05:14:38;93767.56;;;1.11;100.00
6198;BME280;3132;42.622;23.328;2023-01-25T05:17:05;93762.69;;;1.22;100.00
6198;BME280;3132;42.622;23.328;2023-01-25T05:19:31;93758.09;;;1.11;100.00
6198;BME280;3132;42.622;23.328;2023-01-25T05:21:56;93751.09;;;0.92;100.00
6198;BME280;3132;42.622;23.328;2023-01-25T05:24:22;93745.97;;;0.99;100.00
6198;BME280;3132;42.622;23.328;2023-01-25T05:26:47;93765.56;;;0.93;100.00
6198;BME280;3132;42.622;23.328;2023-01-25T05:29:35;93756.25;;;0.99;100.00
6198;BME280;3132;42.622;23.328;2023-01-25T05:32:02;93768.75;;;1.08;100.00
6198;BME280;3132;42.622;23.328;2023-01-25T05:34:28;93760.47;;;1.13;100.00
6198;BME280;3132;42.622;23.328;2023-01-25T05:36:53;93757.88;;;1.06;100.00
6198;BME280;3132;42.622;23.328;2023-01-25T05:39:19;93770.13;;;1.04;100.00
6198;BME280;3132;42.622;23.328;2023-01-25T05:41:44;93760.19;;;0.88;100.00
6198;BME280;3132;42.622;23.328;2023-01-25T05:44:10;93782.00;;;1.05;100.00
6198;BME280;3132;42.622;23.328;2023-01-25T05:46:35;93757.47;;;1.03;100.00
6198;BME280;3132;42.622;23.328;2023-01-25T05:49:01;93755.06;;;1.01;100.00
6198;BME280;3132;42.622;23.328;2023-01-25T05:51:26;93769.94;;;1.12;100.00
6198;BME280;3132;42.622;23.328;2023-01-25T05:53:55;93769.72;;;1.01;100.00
6198;BME280;3132;42.622;23.328;2023-01-25T05:56:21;93774.09;;;1.07;100.00
6198;BME280;3132;42.622;23.328;2023-01-25T05:58:46;93781.22;;;1.11;100.00
6198;BME280;3132;42.622;23.328;2023-01-25T06:01:12;93777.94;;;1.30;100.00
6198;BME280;3132;42.622;23.328;2023-01-25T06:03:37;93772.13;;;1.15;98.89
6198;BME280;3132;42.622;23.328;2023-01-25T06:06:03;93767.13;;;0.94;100.00
6198;BME280;3132;42.622;23.328;2023-01-25T06:08:29;93778.03;;;1.03;100.00
6198;BME280;3132;42.622;23.328;2023-01-25T06:10:55;93777.63;;;0.99;100.00
6198;BME280;3132;42.622;23.328;2023-01-25T06:13:21;93778.78;;;0.97;100.00
6198;BME280;3132;42.622;23.328;2023-01-25T06:15:56;93776.84;;;0.99;100.00
6198;BME280;3132;42.622;23.328;2023-01-25T06:18:22;93786.53;;;1.03;100.00
6198;BME280;3132;42.622;23.328;2023-01-25T06:20:48;93789.09;;;1.03;100.00
6198;BME280;3132;42.622;23.328;2023-01-25T06:23:14;93763.94;;;0.92;100.00
6198;BME280;3132;42.622;23.328;2023-01-25T06:25:39;93767.75;;;0.96;99.11
6198;BME280;3132;42.622;23.328;2023-01-25T06:28:05;93798.00;;;1.01;99.01
6198;BME280;3132;42.622;23.328;2023-01-25T06:30:30;93780.09;;;0.80;100.00
6198;BME280;3132;42.622;23.328;2023-01-25T06:32:59;93774.16;;;0.73;100.00
6198;BME280;3132;42.622;23.328;2023-01-25T06:35:25;93788.13;;;0.98;100.00
6198;BME280;3132;42.622;23.328;2023-01-25T06:37:54;93787.53;;;1.02;99.18
6198;BME280;3132;42.622;23.328;2023-01-25T06:40:20;93797.72;;;0.83;100.00
6198;BME280;3132;42.622;23.328;2023-01-25T06:42:45;93795.78;;;0.91;100.00
6198;BME280;3132;42.622;23.328;2023-01-25T06:45:11;93788.66;;;0.87;100.00
6198;BME280;3132;42.622;23.328;2023-01-25T06:47:36;93781.16;;;0.92;100.00
6198;BME280;3132;42.622;23.328;2023-01-25T06:50:02;93774.03;;;0.94;100.00
6198;BME280;3132;42.622;23.328;2023-01-25T06:52:27;93776.03;;;0.98;100.00
6198;BME280;3132;42.622;23.328;2023-01-25T06:54:52;93750.09;;;0.87;100.00
6198;BME280;3132;42.622;23.328;2023-01-25T06:57:18;93771.72;;;1.05;100.00
6198;BME280;3132;42.622;23.328;2023-01-25T06:59:43;93761.47;;;1.18;99.48
6198;BME280;3132;42.622;23.328;2023-01-25T07:02:14;93789.94;;;1.10;99.74
6198;BME280;3132;42.622;23.328;2023-01-25T07:04:43;93778.44;;;1.06;100.00
6198;BME280;3132;42.622;23.328;2023-01-25T07:07:09;93762.59;;;0.96;100.00
6198;BME280;3132;42.622;23.328;2023-01-25T07:09:34;93760.03;;;0.96;100.00
6198;BME280;3132;42.622;23.328;2023-01-25T07:12:00;93780.06;;;1.20;100.00
6198;BME280;3132;42.622;23.328;2023-01-25T07:14:29;93781.69;;;1.34;100.00
6198;BME280;3132;42.622;23.328;2023-01-25T07:16:54;93776.09;;;1.11;100.00
6198;BME280;3132;42.622;23.328;2023-01-25T07:19:19;93765.41;;;1.14;100.00
6198;BME280;3132;42.622;23.328;2023-01-25T07:21:45;93766.19;;;1.08;99.97
6198;BME280;3132;42.622;23.328;2023-01-25T07:24:13;93781.28;;;1.24;100.00
6198;BME280;3132;42.622;23.328;2023-01-25T07:26:40;93793.31;;;1.17;100.00
6198;BME280;3132;42.622;23.328;2023-01-25T07:29:06;93778.88;;;1.16;100.00
6198;BME280;3132;42.622;23.328;2023-01-25T07:31:34;93770.16;;;1.17;99.80
6198;BME280;3132;42.622;23.328;2023-01-25T07:33:59;93790.31;;;1.14;100.00
6198;BME280;3132;42.622;23.328;2023-01-25T07:36:25;93788.56;;;1.14;100.00
6198;BME280;3132;42.622;23.328;2023-01-25T07:38:54;93787.09;;;0.92;100.00
6198;BME280;3132;42.622;23.328;2023-01-25T07:41:20;93802.03;;;1.16;100.00
6198;BME280;3132;42.622;23.328;2023-01-25T07:43:46;93791.53;;;1.11;100.00
6198;BME280;3132;42.622;23.328;2023-01-25T07:46:12;93753.06;;;0.90;100.00
6198;BME280;3132;42.622;23.328;2023-01-25T07:48:45;93799.44;;;1.10;100.00
6198;BME280;3132;42.622;23.328;2023-01-25T07:51:12;93802.59;;;1.18;100.00
6198;BME280;3132;42.622;23.328;2023-01-25T07:53:58;93792.97;;;1.33;100.00
6198;BME280;3132;42.622;23.328;2023-01-25T07:56:27;93771.19;;;1.29;100.00
6198;BME280;3132;42.622;23.328;2023-01-25T07:58:53;93790.41;;;1.33;100.00
6198;BME280;3132;42.622;23.328;2023-01-25T08:01:20;93783.09;;;1.30;100.00
6198;BME280;3132;42.622;23.328;2023-01-25T08:03:46;93797.69;;;1.23;100.00
6198;BME280;3132;42.622;23.328;2023-01-25T08:06:12;93795.09;;;1.10;100.00
6198;BME280;3132;42.622;23.328;2023-01-25T08:08:46;93797.88;;;1.22;100.00
6198;BME280;3132;42.622;23.328;2023-01-25T08:11:18;93790.13;;;1.15;100.00
6198;BME280;3132;42.622;23.328;2023-01-25T08:13:44;93763.41;;;1.03;100.00
6198;BME280;3132;42.622;23.328;2023-01-25T08:16:15;93792.75;;;1.28;100.00
6198;BME280;3132;42.622;23.328;2023-01-25T08:18:42;93801.63;;;1.19;100.00
6198;BME280;3132;42.622;23.328;2023-01-25T08:21:08;93787.56;;;1.09;100.00
6198;BME280;3132;42.622;23.328;2023-01-25T08:23:34;93763.47;;;1.16;100.00
6198;BME280;3132;42.622;23.328;2023-01-25T08:26:03;93789.63;;;1.39;100.00
6198;BME280;3132;42.622;23.328;2023-01-25T08:28:29;93794.38;;;1.36;100.00
6198;BME280;3132;42.622;23.328;2023-01-25T08:30:54;93786.06;;;1.40;100.00
6198;BME280;3132;42.622;23.328;2023-01-25T08:33:28;93788.06;;;1.38;100.00
6198;BME280;3132;42.622;23.328;2023-01-25T08:35:54;93781.16;;;1.52;100.00
6198;BME280;3132;42.622;23.328;2023-01-25T08:38:20;93754.97;;;1.29;100.00
6198;BME280;3132;42.622;23.328;2023-01-25T08:40:46;93780.59;;;1.70;100.00
6198;BME280;3132;42.622;23.328;2023-01-25T08:43:11;93779.00;;;1.68;100.00
6198;BME280;3132;42.622;23.328;2023-01-25T08:45:36;93783.75;;;1.72;100.00
6198;BME280;3132;42.622;23.328;2023-01-25T08:48:02;93719.97;;;1.34;100.00
6198;BME280;3132;42.622;23.328;2023-01-25T08:50:27;93767.50;;;1.78;100.00
6198;BME280;3132;42.622;23.328;2023-01-25T08:52:53;93779.81;;;1.89;100.00
6198;BME280;3132;42.622;23.328;2023-01-25T08:55:18;93788.31;;;1.83;100.00
6198;BME280;3132;42.622;23.328;2023-01-25T08:57:43;93779.22;;;1.80;100.00
6198;BME280;3132;42.622;23.328;2023-01-25T09:00:09;93739.22;;;1.71;100.00
6198;BME280;3132;42.622;23.328;2023-01-25T09:02:35;93757.63;;;1.68;100.00
6198;BME280;3132;42.622;23.328;2023-01-25T09:05:00;93784.97;;;2.02;100.00
6198;BME280;3132;42.622;23.328;2023-01-25T09:07:25;93770.72;;;1.93;100.00
6198;BME280;3132;42.622;23.328;2023-01-25T09:09:51;93796.25;;;2.14;100.00
6198;BME280;3132;42.622;23.328;2023-01-25T09:12:16;93783.78;;;2.11;99.89
6198;BME280;3132;42.622;23.328;2023-01-25T09:14:41;93778.63;;;2.17;100.00
6198;BME280;3132;42.622;23.328;2023-01-25T09:17:08;93764.75;;;2.18;100.00
6198;BME280;3132;42.622;23.328;2023-01-25T09:19:34;93765.91;;;2.35;98.80
6198;BME280;3132;42.622;23.328;2023-01-25T09:21:59;93761.97;;;2.46;96.60
6198;BME280;3132;42.622;23.328;2023-01-25T09:24:24;93759.19;;;2.41;95.88
6198;BME280;3132;42.622;23.328;2023-01-25T09:26:50;93769.53;;;2.15;97.09
6198;BME280;3132;42.622;23.328;2023-01-25T09:29:15;93761.16;;;2.26;97.69
6198;BME280;3132;42.622;23.328;2023-01-25T09:31:40;93763.94;;;2.31;98.17
6198;BME280;3132;42.622;23.328;2023-01-25T09:34:10;93731.28;;;1.99;98.08
6198;BME280;3132;42.622;23.328;2023-01-25T09:36:36;93758.03;;;2.24;98.11
6198;BME280;3132;42.622;23.328;2023-01-25T09:39:02;93743.78;;;2.15;98.42
6198;BME280;3132;42.622;23.328;2023-01-25T09:45:53;93731.47;;;2.10;99.14
6198;BME280;3132;42.622;23.328;2023-01-25T09:50:35;93732.66;;;2.08;100.00
6198;BME280;3132;42.622;23.328;2023-01-25T09:56:02;93717.63;;;1.98;100.00
6198;BME280;3132;42.622;23.328;2023-01-25T09:58:33;93717.22;;;2.01;100.00
6198;BME280;3132;42.622;23.328;2023-01-25T10:03:53;93717.97;;;2.28;100.00
6198;BME280;3132;42.622;23.328;2023-01-25T10:06:34;93720.34;;;2.29;100.00
6198;BME280;3132;42.622;23.328;2023-01-25T10:09:23;93713.97;;;2.51;99.16
6198;BME280;3132;42.622;23.328;2023-01-25T10:11:52;93693.75;;;2.42;99.35
6198;BME280;3132;42.622;23.328;2023-01-25T10:14:18;93703.03;;;2.56;99.29
6198;BME280;3132;42.622;23.328;2023-01-25T10:19:28;93692.22;;;2.21;100.00
6198;BME280;3132;42.622;23.328;2023-01-25T10:22:20;93690.66;;;2.14;100.00
6198;BME280;3132;42.622;23.328;2023-01-25T10:27:35;93690.09;;;1.92;100.00
6198;BME280;3132;42.622;23.328;2023-01-25T10:30:26;93686.50;;;2.00;100.00
6198;BME280;3132;42.622;23.328;2023-01-25T10:32:55;93674.84;;;1.97;100.00
6198;BME280;3132;42.622;23.328;2023-01-25T10:35:28;93677.22;;;2.12;100.00
6198;BME280;3132;42.622;23.328;2023-01-25T10:38:02;93679.53;;;2.20;100.00
6198;BME280;3132;42.622;23.328;2023-01-25T10:40:34;93680.13;;;2.28;100.00
6198;BME280;3132;42.622;23.328;2023-01-25T10:43:07;93664.63;;;2.41;100.00
6198;BME280;3132;42.622;23.328;2023-01-25T10:45:36;93660.06;;;2.43;100.00
6198;BME280;3132;42.622;23.328;2023-01-25T10:48:07;93665.78;;;2.52;99.32
6198;BME280;3132;42.622;23.328;2023-01-25T10:53:26;93656.47;;;2.51;99.17
6198;BME280;3132;42.622;23.328;2023-01-25T10:58:45;93638.28;;;2.46;99.35
6198;BME280;3132;42.622;23.328;2023-01-25T11:01:26;93644.59;;;2.50;99.72
6198;BME280;3132;42.622;23.328;2023-01-25T11:03:53;93630.56;;;2.39;98.46
6198;BME280;3132;42.622;23.328;2023-01-25T11:06:36;93650.31;;;2.58;98.54
6198;BME280;3132;42.622;23.328;2023-01-25T11:11:59;93640.72;;;2.72;97.36
6198;BME280;3132;42.622;23.328;2023-01-25T11:14:28;93632.84;;;2.54;96.77
6198;BME280;3132;42.622;23.328;2023-01-25T11:16:56;93616.88;;;2.32;98.82
6198;BME280;3132;42.622;23.328;2023-01-25T11:19:39;93619.25;;;2.40;97.61
6198;BME280;3132;42.622;23.328;2023-01-25T11:24:44;93630.44;;;2.65;97.46
6198;BME280;3132;42.622;23.328;2023-01-25T11:27:24;93624.66;;;2.70;97.84
6198;BME280;3132;42.622;23.328;2023-01-25T11:30:13;93627.75;;;2.85;96.60
6198;BME280;3132;42.622;23.328;2023-01-25T11:32:40;93613.91;;;2.79;93.83
6198;BME280;3132;42.622;23.328;2023-01-25T11:37:56;93622.25;;;2.81;92.76
6198;BME280;3132;42.622;23.328;2023-01-25T11:40:32;93609.16;;;2.76;93.28
6198;BME280;3132;42.622;23.328;2023-01-25T11:43:38;93598.16;;;2.63;93.86
6198;BME280;3132;42.622;23.328;2023-01-25T12:05:30;93567.28;;;2.50;92.58
6198;BME280;3132;42.622;23.328;2023-01-25T12:08:04;93573.53;;;2.67;94.01
6198;BME280;3132;42.622;23.328;2023-01-25T12:13:17;93570.78;;;2.62;92.29
6198;BME280;3132;42.622;23.328;2023-01-25T12:16:12;93568.44;;;2.54;93.42
6198;BME280;3132;42.622;23.328;2023-01-25T12:21:29;93559.38;;;2.76;92.05
6198;BME280;3132;42.622;23.328;2023-01-25T12:26:28;93561.53;;;2.79;92.13
6198;BME280;3132;42.622;23.328;2023-01-25T12:28:57;93556.78;;;2.82;91.80
6198;BME280;3132;42.622;23.328;2023-01-25T12:31:50;93545.66;;;2.82;89.34
6198;BME280;3132;42.622;23.328;2023-01-25T12:34:18;93557.13;;;2.61;91.32
6198;BME280;3132;42.622;23.328;2023-01-25T12:36:47;93539.16;;;2.42;93.04
6198;BME280;3132;42.622;23.328;2023-01-25T12:39:23;93549.94;;;2.63;93.96
6198;BME280;3132;42.622;23.328;2023-01-25T12:44:35;93544.16;;;2.68;90.17
6198;BME280;3132;42.622;23.328;2023-01-25T12:47:27;93539.84;;;2.62;91.94
6198;BME280;3132;42.622;23.328;2023-01-25T12:52:48;93538.28;;;2.61;91.25
6198;BME280;3132;42.622;23.328;2023-01-25T12:55:16;93538.88;;;2.63;91.48
6198;BME280;3132;42.622;23.328;2023-01-25T12:57:59;93530.75;;;2.59;91.99
6198;BME280;3132;42.622;23.328;2023-01-25T13:09:11;93499.56;;;2.36;91.51
6198;BME280;3132;42.622;23.328;2023-01-25T13:11:42;93526.69;;;2.39;94.34
6198;BME280;3132;42.622;23.328;2023-01-25T13:16:46;93523.22;;;2.58;92.85
6198;BME280;3132;42.622;23.328;2023-01-25T13:21:56;93517.09;;;2.52;91.86
6198;BME280;3132;42.622;23.328;2023-01-25T13:24:34;93506.44;;;2.49;93.04
6198;BME280;3132;42.622;23.328;2023-01-25T13:27:35;93473.00;;;2.36;92.87
6198;BME280;3132;42.622;23.328;2023-01-25T13:32:52;93513.34;;;2.55;93.21
6198;BME280;3132;42.622;23.328;2023-01-25T13:35:36;93506.19;;;2.57;92.87
6198;BME280;3132;42.622;23.328;2023-01-25T13:38:25;93513.91;;;2.57;93.78
6198;BME280;3132;42.622;23.328;2023-01-25T13:41:07;93502.22;;;2.54;93.33
6198;BME280;3132;42.622;23.328;2023-01-25T13:43:40;93517.06;;;2.59;92.54
6198;BME280;3132;42.622;23.328;2023-01-25T13:46:08;93518.31;;;2.50;92.60
6198;BME280;3132;42.622;23.328;2023-01-25T13:48:43;93512.72;;;2.59;92.60
6198;BME280;3132;42.622;23.328;2023-01-25T13:51:11;93521.25;;;2.60;92.86
6198;BME280;3132;42.622;23.328;2023-01-25T13:53:38;93528.38;;;2.58;93.20
6198;BME280;3132;42.622;23.328;2023-01-25T13:56:04;93523.53;;;2.68;91.90
6198;BME280;3132;42.622;23.328;2023-01-25T13:58:32;93519.06;;;2.57;92.77
6198;BME280;3132;42.622;23.328;2023-01-25T14:01:00;93522.44;;;2.57;92.73
6198;BME280;3132;42.622;23.328;2023-01-25T14:03:39;93521.66;;;2.57;92.50
6198;BME280;3132;42.622;23.328;2023-01-25T14:06:06;93509.78;;;2.49;91.89
6198;BME280;3132;42.622;23.328;2023-01-25T14:08:32;93519.72;;;2.46;91.68
6198;BME280;3132;42.622;23.328;2023-01-25T14:10:58;93503.91;;;2.36;91.92
6198;BME280;3132;42.622;23.328;2023-01-25T14:13:23;93512.81;;;2.40;91.59
6198;BME280;3132;42.622;23.328;2023-01-25T14:15:54;93513.75;;;2.52;92.06
6198;BME280;3132;42.622;23.328;2023-01-25T14:18:25;93496.19;;;2.36;92.92
6198;BME280;3132;42.622;23.328;2023-01-25T14:20:51;93516.16;;;2.47;92.92
6198;BME280;3132;42.622;23.328;2023-01-25T14:23:26;93509.16;;;2.54;90.69
6198;BME280;3132;42.622;23.328;2023-01-25T14:25:53;93505.81;;;2.53;91.02
6198;BME280;3132;42.622;23.328;2023-01-25T14:28:20;93497.25;;;2.22;92.45
6198;BME280;3132;42.622;23.328;2023-01-25T14:30:57;93500.66;;;2.16;91.51
6198;BME280;3132;42.622;23.328;2023-01-25T14:33:28;93507.97;;;2.19;92.90
6198;BME280;3132;42.622;23.328;2023-01-25T14:36:01;93498.13;;;2.03;92.71
6198;BME280;3132;42.622;23.328;2023-01-25T14:38:32;93495.41;;;1.98;93.00
6198;BME280;3132;42.622;23.328;2023-01-25T14:43:55;93491.31;;;1.77;93.93
6198;BME280;3132;42.622;23.328;2023-01-25T14:48:46;93494.25;;;1.87;94.60
6198;BME280;3132;42.622;23.328;2023-01-25T14:51:20;93488.53;;;1.85;94.43
6198;BME280;3132;42.622;23.328;2023-01-25T14:53:54;93499.81;;;1.78;94.38
6198;BME280;3132;42.622;23.328;2023-01-25T14:58:46;93497.50;;;1.70;93.36
6198;BME280;3132;42.622;23.328;2023-01-25T15:01:25;93497.53;;;1.50;93.65